createdAt,value
2023-02-11T00:02:09.799Z,12.65
2023-02-11T00:05:31.575Z,6.22
2023-02-11T00:08:55.346Z,5.55
2023-02-11T00:12:19.744Z,7.05
2023-02-11T00:15:41.301Z,5.45
2023-02-11T00:19:05.706Z,4.22
2023-02-11T00:22:27.589Z,5.25
2023-02-11T00:25:50.857Z,3.70
2023-02-11T00:29:12.622Z,6.20
2023-02-11T00:32:34.574Z,5.75
2023-02-11T00:35:56.484Z,2.85
2023-02-11T00:39:18.328Z,3.22
2023-02-11T00:42:41.416Z,7.93
2023-02-11T00:46:03.638Z,5.30
2023-02-11T00:49:25.415Z,4.68
2023-02-11T00:52:47.399Z,5.35
2023-02-11T00:56:09.727Z,4.15
2023-02-11T00:59:33.109Z,6.32
2023-02-11T01:02:55.347Z,6.43
2023-02-11T01:06:17.696Z,4.70
2023-02-11T01:09:39.766Z,1.98
2023-02-11T01:13:02.641Z,5.13
2023-02-11T01:16:25.865Z,8.55
2023-02-11T01:19:47.797Z,4.82
2023-02-11T01:23:09.575Z,2.92
2023-02-11T01:26:31.570Z,6.78
2023-02-11T01:29:53.234Z,12.80
2023-02-11T01:33:16.819Z,7.60
2023-02-11T01:36:38.289Z,6.97
2023-02-11T01:40:00.018Z,9.80
2023-02-11T01:43:22.339Z,4.35
2023-02-11T01:46:44.271Z,2.40
2023-02-11T01:50:07.718Z,3.40
2023-02-11T01:53:48.774Z,7.10
2023-02-11T01:57:23.379Z,6.57
2023-02-11T02:00:45.560Z,7.65
2023-02-11T02:04:09.511Z,3.83
2023-02-11T02:07:38.460Z,5.93
2023-02-11T02:11:01.144Z,2.67
2023-02-11T02:14:23.308Z,5.07
2023-02-11T02:17:52.278Z,3.30
2023-02-11T02:22:00.400Z,4.07
2023-02-11T02:25:46.604Z,5.20
2023-02-11T02:29:46.930Z,5.55
2023-02-11T02:33:32.027Z,6.47
2023-02-11T02:37:01.930Z,3.42
2023-02-11T02:40:30.815Z,1.15
2023-02-11T02:43:53.695Z,6.72
2023-02-11T02:47:15.311Z,5.00
2023-02-11T02:50:39.299Z,5.47
2023-02-11T02:54:22.856Z,6.18
2023-02-11T02:58:05.061Z,4.78
2023-02-11T03:01:36.102Z,6.03
2023-02-11T03:05:05.915Z,6.20
2023-02-11T03:08:36.004Z,9.60
2023-02-11T03:11:58.132Z,8.52
2023-02-11T03:15:22.719Z,16.40
2023-02-11T03:18:52.400Z,12.80
2023-02-11T03:22:21.289Z,12.93
2023-02-11T03:25:49.744Z,10.82
2023-02-11T03:29:18.184Z,7.80
2023-02-11T03:32:42.738Z,9.05
2023-02-11T03:36:09.116Z,11.75
2023-02-11T03:39:37.948Z,9.32
2023-02-11T03:43:04.964Z,13.45
2023-02-11T03:46:33.712Z,6.43
2023-02-11T03:49:58.129Z,7.10
2023-02-11T03:53:21.856Z,9.70
2023-02-11T03:56:51.020Z,11.10
2023-02-11T04:00:15.881Z,5.78
2023-02-11T04:03:38.062Z,5.15
2023-02-11T04:07:00.032Z,1.35
2023-02-11T04:10:22.256Z,1.60
2023-02-11T04:13:44.109Z,2.20
2023-02-11T04:17:07.692Z,3.83
2023-02-11T04:20:29.438Z,5.03
2023-02-11T04:23:51.372Z,2.08
2023-02-11T04:27:12.927Z,3.42
2023-02-11T04:30:34.832Z,2.25
2023-02-11T04:33:58.175Z,2.47
2023-02-11T04:37:19.882Z,1.17
2023-02-11T04:40:42.082Z,2.85
2023-02-11T04:44:04.072Z,1.40
2023-02-11T04:47:25.858Z,1.35
2023-02-11T04:50:49.056Z,4.47
2023-02-11T04:54:11.009Z,1.55
2023-02-11T04:57:32.817Z,2.08
2023-02-11T05:00:54.796Z,9.75
2023-02-11T05:04:16.630Z,16.27
2023-02-11T05:07:39.724Z,18.50
2023-02-11T05:11:02.345Z,14.85
2023-02-11T05:14:24.011Z,8.15
2023-02-11T05:17:45.806Z,5.45
2023-02-11T05:21:09.102Z,2.30
2023-02-11T05:24:32.692Z,1.30
2023-02-11T05:27:54.757Z,3.50
2023-02-11T05:31:17.001Z,7.45
2023-02-11T05:34:38.980Z,6.63
2023-02-11T05:38:00.749Z,3.05
2023-02-11T05:41:23.908Z,2.88
2023-02-11T05:44:45.915Z,6.28
2023-02-11T05:48:07.975Z,2.92
2023-02-11T05:51:29.900Z,2.58
2023-02-11T05:54:51.934Z,1.80
2023-02-11T05:58:15.411Z,2.38
2023-02-11T06:01:37.162Z,1.63
2023-02-11T06:04:59.079Z,1.83
2023-02-11T06:08:21.381Z,3.15
2023-02-11T06:11:42.995Z,1.60
2023-02-11T06:15:07.094Z,1.90
2023-02-11T06:18:29.591Z,2.22
2023-02-11T06:21:51.862Z,2.80
2023-02-11T06:25:14.611Z,2.17
2023-02-11T06:28:39.326Z,4.53
2023-02-11T06:32:04.218Z,1.20
2023-02-11T06:35:26.178Z,3.25
2023-02-11T06:38:48.788Z,5.10
2023-02-11T06:42:11.393Z,3.85
2023-02-11T06:45:33.304Z,12.27
2023-02-11T06:48:56.573Z,44.25
2023-02-11T06:52:18.768Z,52.33
2023-02-11T06:55:40.416Z,58.10
2023-02-11T06:59:02.050Z,28.83
2023-02-11T07:02:23.820Z,28.77
2023-02-11T07:05:47.113Z,20.50
2023-02-11T07:09:10.104Z,8.63
2023-02-11T07:12:33.050Z,10.07
2023-02-11T07:15:55.103Z,8.48
2023-02-11T07:19:17.205Z,15.27
2023-02-11T07:22:40.729Z,8.75
2023-02-11T07:26:05.464Z,16.90
2023-02-11T07:29:27.618Z,12.38
2023-02-11T07:32:49.714Z,10.05
2023-02-11T07:36:13.206Z,5.63
2023-02-11T07:39:36.830Z,8.65
2023-02-11T07:42:59.022Z,14.63
2023-02-11T07:46:23.458Z,35.33
2023-02-11T07:49:45.441Z,13.32
2023-02-11T07:53:07.670Z,7.68
2023-02-11T07:56:31.798Z,6.65
2023-02-11T07:59:55.047Z,5.95
2023-02-11T08:03:17.004Z,2.25
2023-02-11T08:06:42.557Z,1.70
2023-02-11T08:10:04.407Z,1.63
2023-02-11T08:13:27.775Z,5.45
2023-02-11T08:16:49.570Z,5.53
2023-02-11T08:20:12.224Z,2.28
2023-02-11T08:23:34.112Z,1.73
2023-02-11T08:26:58.507Z,1.00
2023-02-11T08:30:21.952Z,1.50
2023-02-11T08:33:43.944Z,3.00
2023-02-11T08:37:05.601Z,3.20
2023-02-11T08:40:27.244Z,2.72
2023-02-11T08:43:49.601Z,1.30
2023-02-11T08:47:12.886Z,2.33
2023-02-11T08:50:38.802Z,2.88
2023-02-11T08:54:01.173Z,3.20
2023-02-11T08:57:23.045Z,2.63
2023-02-11T09:00:45.548Z,7.82
2023-02-11T09:04:08.689Z,7.18
2023-02-11T09:07:30.714Z,4.30
2023-02-11T09:10:52.995Z,13.05
2023-02-11T09:14:19.939Z,6.47
2023-02-11T09:17:41.981Z,4.70
2023-02-11T09:21:06.460Z,6.75
2023-02-11T09:24:28.117Z,12.80
2023-02-11T09:27:50.056Z,8.57
2023-02-11T09:31:13.505Z,9.95
2023-02-11T09:34:35.504Z,5.90
2023-02-11T09:37:59.111Z,13.73
2023-02-11T09:41:34.872Z,10.20
2023-02-11T09:44:56.535Z,25.63
2023-02-11T09:48:21.504Z,29.60
2023-02-11T09:51:47.362Z,3.80
2023-02-11T09:55:19.873Z,6.03
2023-02-11T09:58:44.363Z,3.50
2023-02-11T10:02:15.064Z,0.82
2023-02-11T10:05:51.414Z,1.13
2023-02-11T10:09:38.399Z,3.13
2023-02-11T10:13:21.273Z,1.95
2023-02-11T10:16:57.157Z,3.72
2023-02-11T10:20:26.871Z,4.00
2023-02-11T10:23:53.952Z,7.85
2023-02-11T10:27:20.767Z,9.10
2023-02-11T10:30:51.323Z,7.47
2023-02-11T10:34:15.784Z,6.85
2023-02-11T10:37:38.057Z,3.03
2023-02-11T10:41:00.154Z,3.53
2023-02-11T10:44:27.563Z,3.33
2023-02-11T10:47:50.893Z,3.83
2023-02-11T10:51:21.217Z,8.07
2023-02-11T10:54:42.931Z,5.82
2023-02-11T10:58:05.912Z,4.93
2023-02-11T11:01:41.901Z,4.85
2023-02-11T11:05:07.976Z,5.68
2023-02-11T11:08:41.197Z,4.10
2023-02-11T11:12:03.270Z,8.45
2023-02-11T11:15:26.651Z,9.48
2023-02-11T11:18:49.987Z,4.82
2023-02-11T11:22:22.380Z,8.85
2023-02-11T11:25:47.251Z,5.30
2023-02-11T11:29:12.985Z,8.30
2023-02-11T11:32:37.340Z,6.18
2023-02-11T11:36:03.112Z,8.23
2023-02-11T11:39:28.139Z,5.82
2023-02-11T11:43:05.433Z,5.43
2023-02-11T11:46:30.693Z,4.82
2023-02-11T11:54:44.237Z,4.68
2023-02-11T11:58:11.993Z,11.18
2023-02-11T12:01:46.379Z,8.13
2023-02-11T12:05:13.075Z,10.23
2023-02-11T12:08:44.105Z,6.07
2023-02-11T12:12:27.905Z,5.65
2023-02-11T12:15:58.602Z,9.35
2023-02-11T12:19:48.133Z,5.13
2023-02-11T12:23:43.155Z,2.30
2023-02-11T12:27:12.676Z,3.65
2023-02-11T12:30:51.241Z,3.25
2023-02-11T12:34:34.325Z,4.13
2023-02-11T12:38:27.948Z,5.50
2023-02-11T12:42:21.639Z,3.67
2023-02-11T12:46:00.953Z,5.82
2023-02-11T12:49:42.693Z,5.45
2023-02-11T12:53:19.277Z,4.80
2023-02-11T12:56:47.840Z,14.80
2023-02-11T13:00:18.552Z,5.82
2023-02-11T13:03:46.657Z,13.57
2023-02-11T13:07:17.021Z,23.17
2023-02-11T13:10:42.535Z,7.40
2023-02-11T13:14:12.232Z,8.88
2023-02-11T13:17:39.069Z,7.65
2023-02-11T13:21:19.567Z,8.18
2023-02-11T13:24:45.538Z,8.23
2023-02-11T13:28:21.919Z,6.65
2023-02-11T13:31:44.054Z,20.58
2023-02-11T13:35:30.862Z,17.33
2023-02-11T13:39:01.071Z,7.88
2023-02-11T13:42:22.854Z,4.15
2023-02-11T13:45:47.062Z,4.35
2023-02-11T13:49:21.163Z,6.38
2023-02-11T13:52:43.197Z,8.95
2023-02-11T13:56:13.749Z,3.17
2023-02-11T13:59:48.112Z,6.38
2023-02-11T14:03:48.733Z,6.68
2023-02-11T14:07:47.553Z,6.43
2023-02-11T14:11:42.149Z,3.17
2023-02-11T14:19:00.865Z,20.67
2023-02-11T14:22:27.779Z,29.50
2023-02-11T14:26:00.664Z,8.20
2023-02-11T14:29:31.673Z,9.45
2023-02-11T14:33:41.040Z,12.38
2023-02-11T14:37:15.684Z,11.02
2023-02-11T14:40:48.017Z,9.20
2023-02-11T14:44:18.312Z,8.13
2023-02-11T14:47:46.166Z,7.90
2023-02-11T14:51:11.458Z,11.60
2023-02-11T14:54:36.715Z,9.70
2023-02-11T14:58:13.272Z,8.55
2023-02-11T15:01:37.516Z,7.57
2023-02-11T15:05:26.293Z,7.60
2023-02-11T15:08:52.253Z,11.52
2023-02-11T15:12:23.807Z,9.13
2023-02-11T15:15:46.791Z,7.60
2023-02-11T15:19:17.224Z,10.55
2023-02-11T15:22:39.491Z,5.80
2023-02-11T15:26:05.003Z,14.95
2023-02-11T15:29:30.295Z,18.65
2023-02-11T15:32:58.134Z,14.63
2023-02-11T15:36:23.894Z,61.80
2023-02-11T15:39:45.717Z,15.23
2023-02-11T15:43:09.917Z,15.18
2023-02-11T15:46:38.955Z,21.10
2023-02-11T15:50:01.002Z,14.65
2023-02-11T15:53:26.929Z,17.52
2023-02-11T15:56:52.039Z,20.10
2023-02-11T16:00:18.094Z,23.15
2023-02-11T16:03:43.619Z,24.55
2023-02-11T16:07:06.728Z,19.80
2023-02-11T16:10:31.529Z,31.90
2023-02-11T16:13:53.120Z,11.35
2023-02-11T16:17:25.584Z,17.92
2023-02-11T16:20:50.788Z,18.05
2023-02-11T16:24:21.611Z,15.60
2023-02-11T16:27:44.372Z,18.08
2023-02-11T16:31:07.318Z,20.73
2023-02-11T16:34:29.799Z,36.10
2023-02-11T16:37:53.246Z,15.68
2023-02-11T16:41:15.409Z,14.40
2023-02-11T16:44:37.312Z,21.80
2023-02-11T16:47:59.218Z,11.50
2023-02-11T16:51:21.651Z,33.63
2023-02-11T16:54:45.579Z,14.05
2023-02-11T16:58:07.787Z,10.25
2023-02-11T17:01:29.707Z,8.20
2023-02-11T17:04:52.220Z,17.50
2023-02-11T17:08:14.061Z,10.52
2023-02-11T17:11:37.290Z,12.25
2023-02-11T17:14:59.340Z,17.88
2023-02-11T17:18:21.582Z,19.13
2023-02-11T17:21:43.809Z,12.90
2023-02-11T17:25:06.771Z,11.35
2023-02-11T17:28:29.994Z,6.57
2023-02-11T17:31:53.566Z,4.03
2023-02-11T17:35:15.888Z,9.88
2023-02-11T17:38:39.002Z,8.27
2023-02-11T17:42:01.894Z,9.45
2023-02-11T17:45:25.579Z,7.40
2023-02-11T17:48:47.325Z,10.93
2023-02-11T17:52:09.258Z,12.90
2023-02-11T17:55:35.006Z,8.45
2023-02-11T17:58:57.096Z,10.65
2023-02-11T18:02:21.457Z,11.85
2023-02-11T18:05:43.303Z,6.32
2023-02-11T18:09:05.747Z,5.30
2023-02-11T18:12:28.376Z,6.28
2023-02-11T18:15:50.522Z,3.92
2023-02-11T18:19:14.610Z,7.95
2023-02-11T18:22:39.530Z,3.95
2023-02-11T18:26:02.943Z,5.68
2023-02-11T18:29:24.637Z,5.10
2023-02-11T18:32:46.919Z,4.78
2023-02-11T18:36:12.484Z,6.35
2023-02-11T18:39:34.799Z,5.60
2023-02-11T18:42:56.564Z,8.48
2023-02-11T18:46:18.408Z,15.82
2023-02-11T18:49:40.058Z,10.88
2023-02-11T18:53:03.448Z,17.15
2023-02-11T18:56:27.818Z,12.07
2023-02-11T18:59:50.743Z,10.57
2023-02-11T19:03:12.621Z,14.23
2023-02-11T19:06:36.505Z,6.50
2023-02-11T19:09:59.669Z,8.73
2023-02-11T19:13:21.907Z,23.98
2023-02-11T19:16:45.237Z,45.25
2023-02-11T19:20:08.488Z,79.55
2023-02-11T19:23:30.277Z,51.67
2023-02-11T19:26:56.566Z,30.48
2023-02-11T19:30:18.584Z,13.48
2023-02-11T19:33:40.660Z,11.15
2023-02-11T19:37:02.342Z,8.57
2023-02-11T19:40:24.127Z,6.18
2023-02-11T19:43:47.956Z,8.35
2023-02-11T19:47:10.566Z,5.53
2023-02-11T19:50:33.654Z,7.90
2023-02-11T19:53:55.586Z,7.85
2023-02-11T19:57:17.611Z,2.78
2023-02-11T20:00:41.398Z,5.22
2023-02-11T20:04:03.550Z,7.43
2023-02-11T20:07:26.187Z,12.98
2023-02-11T20:10:47.949Z,12.18
2023-02-11T20:14:10.748Z,9.27
2023-02-11T20:17:34.120Z,10.98
2023-02-11T20:20:56.097Z,6.50
2023-02-11T20:24:18.814Z,4.53
2023-02-11T20:27:41.250Z,9.40
2023-02-11T20:31:03.487Z,5.68
2023-02-11T20:34:26.891Z,6.28
2023-02-11T20:37:48.933Z,13.77
2023-02-11T20:41:14.069Z,7.95
2023-02-11T20:44:36.832Z,7.28
2023-02-11T20:47:59.050Z,11.20
2023-02-11T20:51:24.625Z,11.23
2023-02-11T20:54:46.741Z,9.40
2023-02-11T20:58:09.388Z,6.70
2023-02-11T21:01:33.774Z,4.90
2023-02-11T21:04:55.979Z,7.25
2023-02-11T21:08:19.458Z,8.48
2023-02-11T21:11:41.439Z,8.77
2023-02-11T21:15:05.486Z,10.18
2023-02-11T21:18:27.522Z,9.23
2023-02-11T21:21:49.303Z,11.80
2023-02-11T21:25:12.362Z,13.65
2023-02-11T21:28:34.809Z,9.73
2023-02-11T21:31:56.861Z,5.63
2023-02-11T21:35:18.907Z,13.35
2023-02-11T21:38:41.040Z,7.47
2023-02-11T21:42:07.192Z,3.80
2023-02-11T21:45:32.312Z,5.30
2023-02-11T21:48:55.118Z,5.72
2023-02-11T21:52:17.063Z,4.93
2023-02-11T21:55:39.500Z,2.90
2023-02-11T21:59:03.104Z,3.42
2023-02-11T22:02:24.987Z,6.47
2023-02-11T22:05:46.741Z,3.13
2023-02-11T22:09:10.909Z,5.32
2023-02-11T22:12:32.871Z,2.70
2023-02-11T22:16:00.859Z,3.38
2023-02-11T22:19:23.780Z,4.57
2023-02-11T22:22:45.359Z,3.42
2023-02-11T22:26:09.626Z,2.33
2023-02-11T22:29:31.821Z,3.65
2023-02-11T22:32:55.287Z,1.30
2023-02-11T22:36:19.063Z,3.20
2023-02-11T22:39:42.108Z,3.20
2023-02-11T22:43:04.087Z,3.97
2023-02-11T22:46:25.791Z,5.57
2023-02-11T22:49:48.914Z,3.60
2023-02-11T22:53:11.107Z,6.93
2023-02-11T22:56:34.956Z,1.80
2023-02-11T22:59:56.695Z,3.90
2023-02-11T23:03:18.229Z,5.38
2023-02-11T23:06:41.803Z,4.28
2023-02-11T23:10:03.754Z,3.20
2023-02-11T23:13:25.667Z,0.90
2023-02-11T23:16:47.477Z,5.65
2023-02-11T23:20:10.166Z,2.95
2023-02-11T23:23:33.700Z,2.20
2023-02-11T23:26:55.303Z,2.28
2023-02-11T23:30:17.529Z,0.80
2023-02-11T23:33:39.172Z,4.13
2023-02-11T23:37:00.956Z,5.43
2023-02-11T23:40:24.138Z,3.85
2023-02-11T23:43:49.987Z,0.85
2023-02-11T23:47:12.448Z,2.33
2023-02-11T23:50:34.672Z,0.75
2023-02-11T23:53:57.280Z,2.50
2023-02-11T23:57:20.622Z,17.92
